createdAt,value
2023-03-16T00:02:19.660Z,100971.84
2023-03-16T00:05:21.205Z,100979.09
2023-03-16T00:08:22.901Z,100988.09
2023-03-16T00:11:28.224Z,100985.25
2023-03-16T00:14:32.263Z,100986.94
2023-03-16T00:17:34.683Z,100990.53
2023-03-16T00:20:36.207Z,100996.66
2023-03-16T00:23:37.748Z,100987.53
2023-03-16T00:26:39.279Z,100988.41
2023-03-16T00:29:48.355Z,100982.69
2023-03-16T00:32:49.946Z,100988.13
2023-03-16T00:36:02.072Z,100980.00
2023-03-16T00:39:05.420Z,100982.69
2023-03-16T00:42:07.354Z,100981.72
2023-03-16T00:45:09.774Z,100980.84
2023-03-16T00:48:11.735Z,100974.56
2023-03-16T00:51:16.452Z,100969.16
2023-03-16T00:54:18.198Z,100972.88
2023-03-16T00:57:21.520Z,100977.16
2023-03-16T01:00:26.602Z,100972.88
2023-03-16T01:03:28.355Z,100977.56
2023-03-16T01:06:30.362Z,100963.19
2023-03-16T01:09:36.720Z,100966.88
2023-03-16T01:12:38.250Z,100965.03
2023-03-16T01:15:40.160Z,100965.16
2023-03-16T01:18:42.102Z,100969.72
2023-03-16T01:21:43.673Z,100957.16
2023-03-16T01:24:46.722Z,100955.34
2023-03-16T01:27:48.190Z,100959.19
2023-03-16T01:30:53.930Z,100956.47
2023-03-16T01:33:55.573Z,100946.50
2023-03-16T01:37:02.888Z,100946.34
2023-03-16T01:40:24.624Z,100948.91
2023-03-16T01:43:28.887Z,100948.78
2023-03-16T01:46:32.548Z,100949.75
2023-03-16T01:49:38.360Z,100943.22
2023-03-16T01:52:40.324Z,100946.94
2023-03-16T01:55:42.905Z,100954.03
2023-03-16T01:58:46.348Z,100949.47
2023-03-16T02:01:48.982Z,100955.06
2023-03-16T02:05:07.498Z,100952.47
2023-03-16T02:08:12.411Z,100950.63
2023-03-16T02:11:18.000Z,100948.91
2023-03-16T02:14:30.384Z,100940.78
2023-03-16T02:17:33.997Z,100939.09
2023-03-16T02:20:48.924Z,100939.09
2023-03-16T02:23:51.535Z,100936.63
2023-03-16T02:27:01.838Z,100929.41
2023-03-16T02:30:15.481Z,100932.09
2023-03-16T02:33:33.976Z,100922.41
2023-03-16T02:36:38.010Z,100922.41
2023-03-16T02:39:39.974Z,100908.88
2023-03-16T02:42:42.593Z,100909.84
2023-03-16T02:45:53.545Z,100902.56
2023-03-16T02:49:16.235Z,100899.00
2023-03-16T02:52:17.899Z,100892.75
2023-03-16T02:55:19.534Z,100890.03
2023-03-16T02:58:21.678Z,100888.91
2023-03-16T03:01:24.224Z,100889.75
2023-03-16T03:04:25.756Z,100891.63
2023-03-16T03:07:31.723Z,100887.78
2023-03-16T03:10:37.974Z,100883.38
2023-03-16T03:13:39.615Z,100881.34
2023-03-16T03:16:47.193Z,100877.78
2023-03-16T03:19:50.371Z,100874.09
2023-03-16T03:22:54.684Z,100868.69
2023-03-16T03:25:59.926Z,100869.53
2023-03-16T03:29:02.409Z,100864.41
2023-03-16T03:32:04.783Z,100868.09
2023-03-16T03:35:07.608Z,100869.97
2023-03-16T03:38:09.140Z,100870.09
2023-03-16T03:41:11.164Z,100872.78
2023-03-16T03:44:14.056Z,100881.91
2023-03-16T03:47:15.623Z,100877.50
2023-03-16T03:50:17.657Z,100885.47
2023-03-16T03:53:29.318Z,100879.22
2023-03-16T03:57:03.640Z,100872.09
2023-03-16T04:00:11.289Z,100876.78
2023-03-16T04:03:17.508Z,100879.63
2023-03-16T04:06:20.312Z,100876.78
2023-03-16T04:09:21.941Z,100883.06
2023-03-16T04:12:24.257Z,100874.66
2023-03-16T04:15:27.325Z,100885.34
2023-03-16T04:18:40.838Z,100876.81
2023-03-16T04:21:44.549Z,100876.66
2023-03-16T04:24:46.192Z,100873.81
2023-03-16T04:27:48.786Z,100879.97
2023-03-16T04:30:54.562Z,100872.69
2023-03-16T04:34:02.317Z,100874.25
2023-03-16T04:37:04.017Z,100870.56
2023-03-16T04:40:15.465Z,100870.44
2023-03-16T04:43:19.450Z,100874.84
2023-03-16T04:46:22.270Z,100879.28
2023-03-16T04:49:24.732Z,100877.28
2023-03-16T04:52:26.389Z,100876.28
2023-03-16T04:55:28.193Z,100870.72
2023-03-16T04:58:29.881Z,100867.00
2023-03-16T05:01:33.006Z,100869.59
2023-03-16T05:04:36.946Z,100878.56
2023-03-16T05:07:41.415Z,100879.41
2023-03-16T05:10:44.619Z,100879.41
2023-03-16T05:13:46.227Z,100873.16
2023-03-16T05:16:47.987Z,100869.59
2023-03-16T05:19:50.353Z,100875.88
2023-03-16T05:22:53.490Z,100869.59
2023-03-16T05:26:01.402Z,100875.13
2023-03-16T05:29:05.930Z,100885.13
2023-03-16T05:32:08.369Z,100870.72
2023-03-16T05:35:13.458Z,100862.75
2023-03-16T05:38:15.847Z,100857.44
2023-03-16T05:41:18.749Z,100861.16
2023-03-16T05:44:39.003Z,100856.91
2023-03-16T05:47:49.327Z,100851.47
2023-03-16T05:50:51.240Z,100858.00
2023-03-16T05:53:56.607Z,100853.56
2023-03-16T05:57:06.988Z,100850.84
2023-03-16T06:00:14.483Z,100850.84
2023-03-16T06:03:22.719Z,100844.47
2023-03-16T06:06:25.972Z,100843.34
2023-03-16T06:09:33.737Z,100836.94
2023-03-16T06:12:38.229Z,100841.19
2023-03-16T06:15:40.499Z,100845.78
2023-03-16T06:18:42.546Z,100844.78
2023-03-16T06:21:45.156Z,100836.50
2023-03-16T06:24:47.302Z,100831.94
2023-03-16T06:27:52.838Z,100830.66
2023-03-16T06:30:56.233Z,100831.50
2023-03-16T06:34:01.181Z,100840.34
2023-03-16T06:37:03.951Z,100848.34
2023-03-16T06:40:06.252Z,100845.66
2023-03-16T06:43:09.145Z,100846.50
2023-03-16T06:46:11.200Z,100847.47
2023-03-16T06:49:12.901Z,100844.75
2023-03-16T06:52:14.861Z,100856.31
2023-03-16T06:55:16.522Z,100858.19
2023-03-16T06:58:21.291Z,100854.75
2023-03-16T07:01:23.217Z,100858.31
2023-03-16T07:04:25.027Z,100861.19
2023-03-16T07:07:48.288Z,100858.47
2023-03-16T07:10:54.444Z,100867.56
2023-03-16T07:13:56.316Z,100863.16
2023-03-16T07:16:58.328Z,100859.59
2023-03-16T07:20:00.919Z,100867.00
2023-03-16T07:23:02.510Z,100877.00
2023-03-16T07:26:04.045Z,100878.88
2023-03-16T07:29:08.014Z,100887.25
2023-03-16T07:32:09.978Z,100882.84
2023-03-16T07:35:13.430Z,100885.53
2023-03-16T07:38:15.099Z,100885.69
2023-03-16T07:41:16.752Z,100896.75
2023-03-16T07:44:18.337Z,100892.47
2023-03-16T07:47:26.389Z,100893.50
2023-03-16T07:50:31.091Z,100889.22
2023-03-16T07:53:32.959Z,100887.47
2023-03-16T07:56:49.870Z,100889.47
2023-03-16T08:00:14.022Z,100893.06
2023-03-16T08:03:16.966Z,100889.63
2023-03-16T08:06:21.369Z,100895.03
2023-03-16T08:09:23.083Z,100895.91
2023-03-16T08:12:24.926Z,100901.44
2023-03-16T08:15:26.776Z,100896.19
2023-03-16T08:18:34.923Z,100903.28
2023-03-16T08:21:53.113Z,100912.28
2023-03-16T08:24:58.552Z,100903.28
2023-03-16T08:28:00.286Z,100909.44
2023-03-16T08:31:01.957Z,100900.31
2023-03-16T08:34:19.521Z,100900.31
2023-03-16T08:37:22.070Z,100902.88
2023-03-16T08:40:29.603Z,100906.44
2023-03-16T08:43:33.605Z,100906.31
2023-03-16T08:46:35.645Z,100906.16
2023-03-16T08:49:38.135Z,100907.88
2023-03-16T08:52:44.970Z,100905.19
2023-03-16T08:55:46.645Z,100903.31
2023-03-16T08:58:50.490Z,100897.91
2023-03-16T09:01:52.879Z,100897.78
2023-03-16T09:04:54.682Z,100884.22
2023-03-16T09:07:56.487Z,100891.34
2023-03-16T09:11:07.508Z,100895.06
2023-03-16T09:14:08.982Z,100886.94
2023-03-16T09:17:11.705Z,100883.50
2023-03-16T09:20:22.482Z,100885.22
2023-03-16T09:23:29.056Z,100882.66
2023-03-16T09:26:30.614Z,100879.06
2023-03-16T09:29:33.271Z,100881.09
2023-03-16T09:32:37.244Z,100889.22
2023-03-16T09:35:38.961Z,100864.97
2023-03-16T09:38:42.274Z,100876.81
2023-03-16T09:41:48.781Z,100869.66
2023-03-16T09:45:13.740Z,100865.38
2023-03-16T09:48:17.121Z,100854.00
2023-03-16T09:51:41.604Z,100864.81
2023-03-16T09:55:26.133Z,100861.97
2023-03-16T09:59:07.023Z,100865.38
2023-03-16T10:03:17.715Z,100863.28
2023-03-16T10:06:19.363Z,100865.81
2023-03-16T10:10:01.962Z,100873.66
2023-03-16T10:13:05.523Z,100868.97
2023-03-16T10:16:30.690Z,100877.72
2023-03-16T10:19:49.841Z,100866.59
2023-03-16T10:22:53.013Z,100855.47
2023-03-16T10:25:56.241Z,100863.16
2023-03-16T10:29:00.984Z,100852.03
2023-03-16T10:32:13.314Z,100856.03
2023-03-16T10:35:38.048Z,100852.88
2023-03-16T10:38:39.516Z,100843.78
2023-03-16T10:41:47.798Z,100840.78
2023-03-16T10:44:49.585Z,100843.50
2023-03-16T10:47:51.138Z,100839.63
2023-03-16T10:50:57.342Z,100845.78
2023-03-16T10:54:04.949Z,100836.75
2023-03-16T10:57:27.416Z,100829.34
2023-03-16T11:00:38.425Z,100828.38
2023-03-16T11:03:43.710Z,100832.78
2023-03-16T11:06:56.939Z,100823.63
2023-03-16T11:09:59.646Z,100822.78
2023-03-16T11:13:22.648Z,100825.38
2023-03-16T11:16:30.876Z,100821.63
2023-03-16T11:19:38.687Z,100825.19
2023-03-16T11:22:43.000Z,100825.19
2023-03-16T11:25:48.554Z,100827.78
2023-03-16T11:29:03.515Z,100828.63
2023-03-16T11:32:11.963Z,100817.78
2023-03-16T11:35:29.039Z,100816.94
2023-03-16T11:38:44.029Z,100816.81
2023-03-16T11:41:53.377Z,100797.84
2023-03-16T11:45:19.650Z,100792.41
2023-03-16T11:48:26.368Z,100780.69
2023-03-16T11:51:45.754Z,100779.72
2023-03-16T11:55:06.257Z,100777.97
2023-03-16T11:58:29.232Z,100775.84
2023-03-16T12:01:47.745Z,100780.44
2023-03-16T12:05:17.693Z,100763.00
2023-03-16T12:08:31.655Z,100763.88
2023-03-16T12:11:40.917Z,100763.16
2023-03-16T12:14:51.421Z,100758.75
2023-03-16T12:17:57.473Z,100746.19
2023-03-16T12:21:04.145Z,100741.78
2023-03-16T12:24:14.856Z,100730.22
2023-03-16T12:27:22.543Z,100734.78
2023-03-16T12:30:39.503Z,100723.25
2023-03-16T12:33:59.922Z,100726.09
2023-03-16T12:37:05.259Z,100719.97
2023-03-16T12:40:25.781Z,100724.53
2023-03-16T12:43:46.461Z,100727.09
2023-03-16T12:47:04.507Z,100723.53
2023-03-16T12:50:12.792Z,100708.97
2023-03-16T12:53:44.057Z,100698.00
2023-03-16T12:56:48.107Z,100702.28
2023-03-16T12:59:57.445Z,100698.41
2023-03-16T13:02:59.879Z,100699.25
2023-03-16T13:06:03.365Z,100692.81
2023-03-16T13:09:07.203Z,100691.84
2023-03-16T13:12:10.384Z,100688.97
2023-03-16T13:15:17.199Z,100685.09
2023-03-16T13:18:22.093Z,100682.38
2023-03-16T13:21:44.691Z,100667.69
2023-03-16T13:25:14.252Z,100656.84
2023-03-16T13:28:17.502Z,100656.00
2023-03-16T13:31:41.192Z,100651.44
2023-03-16T13:34:56.473Z,100647.03
2023-03-16T13:38:05.739Z,100644.31
2023-03-16T13:41:14.142Z,100648.72
2023-03-16T13:44:15.893Z,100639.91
2023-03-16T13:47:20.242Z,100645.31
2023-03-16T13:50:22.137Z,100634.31
2023-03-16T13:53:28.904Z,100633.47
2023-03-16T13:56:32.625Z,100629.75
2023-03-16T13:59:34.223Z,100631.59
2023-03-16T14:02:43.576Z,100633.34
2023-03-16T14:05:45.767Z,100616.19
2023-03-16T14:08:50.628Z,100606.22
2023-03-16T14:11:52.222Z,100609.91
2023-03-16T14:14:55.719Z,100601.78
2023-03-16T14:18:13.622Z,100608.06
2023-03-16T14:21:22.866Z,100592.69
2023-03-16T14:24:35.401Z,100593.53
2023-03-16T14:27:40.462Z,100594.22
2023-03-16T14:30:54.035Z,100591.53
2023-03-16T14:34:01.755Z,100586.94
2023-03-16T14:37:09.682Z,100574.56
2023-03-16T14:40:30.722Z,100571.00
2023-03-16T14:43:36.562Z,100562.88
2023-03-16T14:46:41.116Z,100567.59
2023-03-16T14:49:43.478Z,100565.00
2023-03-16T14:52:45.815Z,100559.59
2023-03-16T14:55:47.897Z,100547.06
2023-03-16T14:58:49.367Z,100545.19
2023-03-16T15:01:53.436Z,100536.03
2023-03-16T15:04:56.937Z,100530.63
2023-03-16T15:07:58.674Z,100520.81
2023-03-16T15:11:04.830Z,100524.53
2023-03-16T15:14:37.304Z,100531.78
2023-03-16T15:17:38.827Z,100523.13
2023-03-16T15:20:43.302Z,100528.53
2023-03-16T15:23:45.103Z,100520.56
2023-03-16T15:26:46.989Z,100498.72
2023-03-16T15:29:48.644Z,100494.34
2023-03-16T15:32:50.265Z,100493.63
2023-03-16T15:35:57.793Z,100499.94
2023-03-16T15:39:01.537Z,100483.22
2023-03-16T15:42:06.038Z,100483.72
2023-03-16T15:45:13.744Z,100483.19
2023-03-16T15:48:16.862Z,100481.56
2023-03-16T15:51:30.089Z,100479.59
2023-03-16T15:54:33.884Z,100471.38
2023-03-16T15:57:36.598Z,100468.53
2023-03-16T16:00:39.557Z,100453.63
2023-03-16T16:03:41.223Z,100456.63
2023-03-16T16:06:43.660Z,100447.50
2023-03-16T16:09:45.351Z,100437.22
2023-03-16T16:12:53.082Z,100432.91
2023-03-16T16:15:55.126Z,100441.44
2023-03-16T16:18:56.893Z,100449.81
2023-03-16T16:21:58.426Z,100450.22
2023-03-16T16:24:59.959Z,100454.31
2023-03-16T16:28:01.588Z,100445.03
2023-03-16T16:31:03.168Z,100442.06
2023-03-16T16:34:11.759Z,100437.88
2023-03-16T16:37:13.296Z,100436.56
2023-03-16T16:40:20.497Z,100425.47
2023-03-16T16:43:30.842Z,100422.31
2023-03-16T16:46:43.738Z,100410.31
2023-03-16T16:49:45.384Z,100418.28
2023-03-16T16:52:47.289Z,100417.28
2023-03-16T16:55:49.346Z,100417.97
2023-03-16T16:58:51.377Z,100415.13
2023-03-16T17:01:57.311Z,100410.53
2023-03-16T17:04:58.851Z,100408.69
2023-03-16T17:08:04.066Z,100399.56
2023-03-16T17:11:05.632Z,100395.69
2023-03-16T17:14:10.525Z,100380.16
2023-03-16T17:17:17.318Z,100382.69
2023-03-16T17:20:25.823Z,100388.94
2023-03-16T17:23:29.596Z,100394.38
2023-03-16T17:26:37.222Z,100378.81
2023-03-16T17:29:38.760Z,100381.53
2023-03-16T17:32:40.509Z,100376.81
2023-03-16T17:35:43.993Z,100383.06
2023-03-16T17:38:45.564Z,100374.81
2023-03-16T17:41:57.169Z,100385.47
2023-03-16T17:44:58.870Z,100377.34
2023-03-16T17:48:00.422Z,100371.78
2023-03-16T17:51:01.929Z,100370.75
2023-03-16T17:54:05.002Z,100363.50
2023-03-16T17:57:16.316Z,100364.16
2023-03-16T18:00:30.097Z,100363.19
2023-03-16T18:03:32.574Z,100365.72
2023-03-16T18:06:34.198Z,100376.56
2023-03-16T18:09:35.658Z,100366.75
2023-03-16T18:12:37.163Z,100374.88
2023-03-16T18:15:39.306Z,100378.59
2023-03-16T18:18:42.748Z,100374.03
2023-03-16T18:21:45.604Z,100370.63
2023-03-16T18:24:48.468Z,100374.88
2023-03-16T18:27:51.236Z,100372.00
2023-03-16T18:30:53.503Z,100373.69
2023-03-16T18:33:57.878Z,100372.69
2023-03-16T18:37:04.053Z,100370.84
2023-03-16T18:40:06.478Z,100368.97
2023-03-16T18:43:14.645Z,100367.97
2023-03-16T18:46:33.313Z,100364.25
2023-03-16T18:49:36.694Z,100366.78
2023-03-16T18:52:40.255Z,100354.28
2023-03-16T18:55:44.897Z,100351.38
2023-03-16T18:58:48.093Z,100348.53
2023-03-16T19:01:49.695Z,100352.94
2023-03-16T19:04:51.288Z,100357.34
2023-03-16T19:07:53.061Z,100357.34
2023-03-16T19:10:58.932Z,100361.63
2023-03-16T19:14:00.381Z,100351.75
2023-03-16T19:17:02.190Z,100358.06
2023-03-16T19:20:04.241Z,100359.91
2023-03-16T19:23:32.627Z,100363.16
2023-03-16T19:26:37.194Z,100357.75
2023-03-16T19:29:38.752Z,100357.75
2023-03-16T19:32:40.924Z,100355.03
2023-03-16T19:35:51.429Z,100350.44
2023-03-16T19:38:54.009Z,100350.31
2023-03-16T19:41:58.332Z,100347.41
2023-03-16T19:45:00.473Z,100343.88
2023-03-16T19:48:02.153Z,100330.31
2023-03-16T19:51:05.279Z,100334.72
2023-03-16T19:54:06.883Z,100337.44
2023-03-16T19:57:14.906Z,100330.00
2023-03-16T20:00:26.600Z,100328.13
2023-03-16T20:03:31.693Z,100321.00
2023-03-16T20:06:33.262Z,100312.88
2023-03-16T20:09:34.835Z,100304.75
2023-03-16T20:12:38.379Z,100294.75
2023-03-16T20:15:40.090Z,100302.88
2023-03-16T20:18:41.734Z,100292.75
2023-03-16T20:21:43.300Z,100296.63
2023-03-16T20:24:45.709Z,100296.47
2023-03-16T20:27:53.642Z,100288.16
2023-03-16T20:30:55.362Z,100281.06
2023-03-16T20:33:57.915Z,100276.47
2023-03-16T20:36:59.605Z,100273.78
2023-03-16T20:40:01.433Z,100274.63
2023-03-16T20:43:03.973Z,100279.88
2023-03-16T20:46:05.846Z,100278.16
2023-03-16T20:49:22.491Z,100278.88
2023-03-16T20:52:27.253Z,100281.56
2023-03-16T20:55:31.246Z,100284.47
2023-03-16T20:58:34.969Z,100270.72
2023-03-16T21:01:38.758Z,100270.72
2023-03-16T21:04:42.551Z,100277.00
2023-03-16T21:07:44.050Z,100261.75
2023-03-16T21:10:47.467Z,100261.59
2023-03-16T21:13:48.952Z,100250.75
2023-03-16T21:16:51.496Z,100253.47
2023-03-16T21:19:52.956Z,100249.88
2023-03-16T21:22:54.690Z,100245.34
2023-03-16T21:26:01.292Z,100258.72
2023-03-16T21:29:06.623Z,100249.75
2023-03-16T21:32:34.717Z,100236.19
2023-03-16T21:35:37.790Z,100226.38
2023-03-16T21:38:39.268Z,100219.94
2023-03-16T21:41:41.096Z,100218.25
2023-03-16T21:44:43.004Z,100201.09
2023-03-16T21:47:45.983Z,100202.97
2023-03-16T21:50:48.350Z,100182.13
2023-03-16T21:53:49.840Z,100190.44
2023-03-16T21:56:51.365Z,100185.88
2023-03-16T21:59:52.843Z,100182.31
2023-03-16T22:02:57.630Z,100181.47
2023-03-16T22:06:00.330Z,100177.88
2023-03-16T22:09:01.849Z,100170.78
2023-03-16T22:12:03.421Z,100166.38
2023-03-16T22:15:05.278Z,100157.38
2023-03-16T22:18:13.724Z,100148.41
2023-03-16T22:21:33.033Z,100142.13
2023-03-16T22:24:36.322Z,100132.47
2023-03-16T22:27:37.787Z,100124.50
2023-03-16T22:30:39.876Z,100124.69
2023-03-16T22:33:42.903Z,100131.09
2023-03-16T22:36:44.390Z,100123.16
2023-03-16T22:39:47.254Z,100125.00
2023-03-16T22:42:48.892Z,100116.19
2023-03-16T22:45:54.565Z,100106.19
2023-03-16T22:48:56.708Z,100090.09
2023-03-16T22:51:58.188Z,100087.72
2023-03-16T22:55:01.587Z,100095.00
2023-03-16T22:58:14.859Z,100092.28
2023-03-16T23:01:20.808Z,100090.75
2023-03-16T23:04:32.186Z,100099.03
2023-03-16T23:07:34.254Z,100091.09
2023-03-16T23:10:37.085Z,100090.25
2023-03-16T23:13:38.611Z,100080.59
2023-03-16T23:16:41.706Z,100079.56
2023-03-16T23:19:43.557Z,100067.03
2023-03-16T23:22:45.143Z,100070.75
2023-03-16T23:25:47.788Z,100057.38
2023-03-16T23:28:51.131Z,100056.50
2023-03-16T23:31:53.580Z,100060.22
2023-03-16T23:34:55.039Z,100050.41
2023-03-16T23:37:56.562Z,100054.13
2023-03-16T23:40:58.141Z,100058.69
2023-03-16T23:44:00.427Z,100045.31
2023-03-16T23:47:02.241Z,100053.44
2023-03-16T23:50:05.980Z,100051.75
2023-03-16T23:53:13.530Z,100047.34
2023-03-16T23:56:15.511Z,100038.53
2023-03-16T23:59:18.981Z,100041.41
